Time;durP1;ratioP1;P1;durP2;ratioP2;P2;SDS_P1;SDS_P2;PMS_P1;PMS_P2;Temp;Humidity;BMP_temperature;BMP_pressure;BME280_temperature;BME280_humidity;BME280_pressure;Samples;Min_cycle;Max_cycle;Signal;HPM_P1;HPM_P2
2022/08/22 00:00:44;;;;;;;4.40;2.63;;;;;;;18.35;75.27;100052.88;6034761;23;97977;-75
2022/08/22 00:03:24;;;;;;;3.88;2.45;;;;;;;18.33;75.27;100049.50;6011612;23;100970;-76
2022/08/22 00:05:56;;;;;;;5.20;2.70;;;;;;;18.38;75.44;100052.66;5986322;23;96674;-76
2022/08/22 00:08:42;;;;;;;4.78;2.35;;;;;;;18.33;75.43;100047.69;6035885;23;96811;-76
2022/08/22 00:11:25;;;;;;;7.00;2.60;;;;;;;18.36;75.14;100038.66;6011178;23;101202;-77
2022/08/22 00:14:17;;;;;;;7.32;3.00;;;;;;;18.29;75.44;100037.38;6009856;23;101726;-78
2022/08/22 00:17:03;;;;;;;4.22;2.35;;;;;;;18.30;75.85;100042.59;6035065;23;97087;-77
2022/08/22 00:19:44;;;;;;;6.10;2.58;;;;;;;18.23;75.97;100048.44;6010289;23;96992;-76
2022/08/22 00:22:21;;;;;;;3.55;2.20;;;;;;;18.25;75.79;100044.72;6012051;23;101170;-76
2022/08/22 00:25:34;;;;;;;3.67;2.20;;;;;;;18.24;75.84;100050.16;5987235;23;101454;-76
2022/08/22 00:28:23;;;;;;;4.82;2.67;;;;;;;18.22;75.43;100044.94;6011782;23;97132;-76
2022/08/22 00:30:51;;;;;;;7.00;2.50;;;;;;;18.15;75.86;100033.06;6010823;23;97112;-77
2022/08/22 00:33:42;;;;;;;3.85;2.25;;;;;;;18.20;76.06;100056.63;6063422;23;101203;-76
2022/08/22 00:36:17;;;;;;;7.13;2.70;;;;;;;18.09;76.35;100052.06;6016591;23;101170;-75
2022/08/22 00:38:59;;;;;;;4.15;2.90;;;;;;;18.09;76.68;100047.63;6039070;23;97176;-76
2022/08/22 00:41:40;;;;;;;4.65;2.45;;;;;;;18.19;75.92;100041.66;6040796;23;96750;-76
2022/08/22 00:44:20;;;;;;;4.53;2.47;;;;;;;18.16;76.41;100053.34;6039979;23;101254;-76
2022/08/22 00:46:55;;;;;;;6.10;2.63;;;;;;;18.07;76.19;100036.25;6016111;23;101100;-76
2022/08/22 00:49:54;;;;;;;4.25;2.58;;;;;;;18.11;76.36;100042.19;6040829;23;96615;-76
2022/08/22 00:52:31;;;;;;;3.53;2.30;;;;;;;18.16;76.40;100045.38;6040638;23;96894;-76
2022/08/22 00:55:06;;;;;;;4.90;2.00;;;;;;;17.98;76.63;100020.97;6039076;23;98126;-76
2022/08/22 00:57:50;;;;;;;7.45;2.47;;;;;;;18.09;76.61;100034.34;6040200;23;100879;-75
2022/08/22 01:00:19;;;;;;;4.07;2.47;;;;;;;18.11;76.32;100039.53;6063663;23;96768;-76
2022/08/22 01:03:09;;;;;;;6.10;2.75;;;;;;;18.17;75.92;100039.09;6063945;23;97196;-75
2022/08/22 01:06:14;;;;;;;2.33;1.90;;;;;;;17.93;76.11;100012.44;6039464;23;101648;-77
2022/08/22 01:09:10;;;;;;;3.83;2.20;;;;;;;18.14;75.81;100033.16;6039127;23;100383;-75
2022/08/22 01:11:57;;;;;;;7.00;2.25;;;;;;;18.15;75.84;100027.75;6064035;23;96814;-76
2022/08/22 01:14:26;;;;;;;5.18;2.08;;;;;;;18.07;76.53;100024.78;6040357;23;97036;-76
2022/08/22 01:17:00;;;;;;;2.83;1.85;;;;;;;18.05;76.43;100021.38;6064526;23;101522;-76
2022/08/22 01:19:34;;;;;;;4.13;2.22;;;;;;;18.00;76.17;100024.31;6091213;23;97531;-76
2022/08/22 01:22:31;;;;;;;6.60;2.20;;;;;;;18.06;75.98;100021.28;6064129;23;96985;-75
2022/08/22 01:25:18;;;;;;;5.88;2.50;;;;;;;17.98;76.23;100030.72;6063204;23;96930;-78
2022/08/22 01:28:02;;;;;;;6.72;2.92;;;;;;;18.00;76.14;100029.63;6038362;23;101177;-75
2022/08/22 01:30:49;;;;;;;6.70;2.50;;;;;;;18.03;75.81;100034.75;6040057;23;100816;-75
2022/08/22 01:33:52;;;;;;;4.78;2.45;;;;;;;17.97;76.00;100031.66;6064467;23;96599;-77
2022/08/22 01:36:42;;;;;;;3.53;2.10;;;;;;;18.01;75.60;100025.22;6065497;23;97037;-75
2022/08/22 01:39:30;;;;;;;2.88;2.00;;;;;;;17.95;75.52;100031.78;6063981;23;97637;-78
2022/08/22 01:42:20;;;;;;;3.92;2.22;;;;;;;17.96;75.69;100033.47;6039107;23;101284;-75
2022/08/22 01:44:55;;;;;;;3.42;1.90;;;;;;;17.93;75.68;100030.19;6015130;23;97164;-78
2022/08/22 01:47:46;;;;;;;2.92;1.70;;;;;;;17.86;75.96;100027.13;6065455;23;97488;-77
2022/08/22 01:50:20;;;;;;;3.78;1.73;;;;;;;17.81;76.05;100027.44;6064626;23;98005;-75
2022/08/22 01:53:02;;;;;;;4.85;2.17;;;;;;;17.90;75.80;100028.59;6039682;23;100972;-76
2022/08/22 01:55:43;;;;;;;5.35;2.05;;;;;;;17.83;75.39;100011.38;6039210;23;97337;-76
2022/08/22 01:58:22;;;;;;;3.60;1.98;;;;;;;17.95;75.69;100033.56;6015990;23;96725;-75
2022/08/22 02:01:23;;;;;;;3.80;1.88;;;;;;;17.79;75.91;100026.66;6039480;23;101557;-75
2022/08/22 02:03:54;;;;;;;4.67;1.77;;;;;;;17.79;75.90;100033.78;6005238;23;101728;-76
2022/08/22 02:06:22;;;;;;;;;;;;;;;17.74;76.33;100034.06;6040746;23;97093;-76
2022/08/22 02:09:03;;;;;;;4.47;2.33;;;;;;;17.81;75.62;100040.69;6014939;23;97237;-76
2022/08/22 02:11:42;;;;;;;;;;;;;;;17.76;75.79;100045.44;6040465;23;100984;-76
2022/08/22 02:14:30;;;;;;;4.18;1.88;;;;;;;17.70;76.12;100045.84;6016290;23;101571;-76
2022/08/22 02:17:08;;;;;;;3.70;1.77;;;;;;;17.79;75.79;100036.44;6039926;23;96706;-75
2022/08/22 02:19:39;;;;;;;3.20;1.98;;;;;;;17.78;76.00;100050.69;6016305;23;96848;-77
2022/08/22 02:22:26;;;;;;;4.20;1.90;;;;;;;17.77;75.74;100049.81;6039893;23;101619;-76
2022/08/22 02:25:25;;;;;;;2.63;1.60;;;;;;;17.74;76.04;100046.50;6038016;23;101340;-76
2022/08/22 02:27:58;;;;;;;3.42;1.75;;;;;;;17.81;75.80;100046.00;6015071;23;97254;-75
2022/08/22 02:31:01;;;;;;;5.88;1.98;;;;;;;17.83;75.86;100040.56;6039429;23;96814;-75
2022/08/22 02:33:44;;;;;;;5.30;1.88;;;;;;;17.84;75.72;100044.94;6063442;23;101669;-77
2022/08/22 02:36:31;;;;;;;3.28;2.17;;;;;;;17.78;75.77;100040.06;6039655;23;100908;-76
2022/08/22 02:39:00;;;;;;;5.28;2.03;;;;;;;17.71;76.08;100052.00;6039220;23;97083;-76
2022/08/22 02:41:30;;;;;;;2.38;1.58;;;;;;;17.78;75.71;100048.88;6016892;23;96938;-76
2022/08/22 02:44:03;;;;;;;4.35;1.63;;;;;;;17.70;75.97;100032.59;6063258;23;101533;-76
2022/08/22 02:46:40;;;;;;;3.58;1.58;;;;;;;17.78;76.04;100050.69;6041261;23;101053;-76
2022/08/22 02:49:24;;;;;;;5.22;1.80;;;;;;;17.58;76.08;100026.31;6040795;23;96820;-77
2022/08/22 02:52:12;;;;;;;4.78;1.92;;;;;;;17.64;76.31;100054.22;6040406;23;97262;-76
2022/08/22 02:54:44;;;;;;;4.05;2.10;;;;;;;17.62;76.26;100045.50;6040162;23;97902;-77
2022/08/22 02:57:23;;;;;;;5.68;1.50;;;;;;;17.65;75.85;100047.97;6064573;23;97575;-75
2022/08/22 03:00:14;;;;;;;6.75;1.80;;;;;;;17.64;75.74;100033.00;6040192;23;97179;-75
2022/08/22 03:02:55;;;;;;;;;;;;;;;17.57;76.32;100055.59;6065519;23;96690;-75
2022/08/22 03:05:35;;;;;;;3.25;1.65;;;;;;;17.57;76.03;100035.22;6040344;23;100859;-76
2022/08/22 03:08:07;;;;;;;2.83;1.63;;;;;;;17.45;76.05;100025.41;6064894;23;98495;-76
2022/08/22 03:10:40;;;;;;;3.42;1.80;;;;;;;17.53;76.19;100031.06;6040833;23;98449;-78
2022/08/22 03:13:07;;;;;;;1.85;1.35;;;;;;;17.65;76.03;100054.13;6040632;23;96842;-75
2022/08/22 03:15:42;;;;;;;5.03;1.33;;;;;;;17.55;76.05;100041.59;6039752;23;101772;-75
2022/08/22 03:18:27;;;;;;;3.00;1.70;;;;;;;17.57;76.38;100050.28;6041635;23;97951;-76
2022/08/22 03:21:10;;;;;;;2.13;1.30;;;;;;;17.68;75.49;100050.41;6040797;23;97064;-77
2022/08/22 03:23:53;;;;;;;5.60;1.60;;;;;;;17.63;75.90;100057.84;6040310;23;96797;-78
2022/08/22 03:26:32;;;;;;;3.08;1.40;;;;;;;17.51;76.26;100050.69;6015733;23;102427;-76
2022/08/22 03:29:22;;;;;;;4.47;1.83;;;;;;;17.53;76.13;100062.91;6039230;23;101712;-75
2022/08/22 03:32:08;;;;;;;7.30;1.60;;;;;;;17.49;76.02;100066.72;6039699;23;97258;-75
2022/08/22 03:34:33;;;;;;;3.80;1.63;;;;;;;17.48;76.30;100065.00;6016639;23;96937;-76
2022/08/22 03:37:18;;;;;;;4.25;1.60;;;;;;;17.50;75.97;100063.13;6063687;23;101558;-75
2022/08/22 03:39:50;;;;;;;3.00;1.60;;;;;;;17.49;76.14;100061.44;6039324;23;97607;-77
2022/08/22 03:42:21;;;;;;;4.18;1.63;;;;;;;17.46;76.16;100066.94;6039954;23;97294;-76
2022/08/22 03:45:08;;;;;;;3.97;2.03;;;;;;;17.46;76.01;100058.97;6039785;23;97065;-75
2022/08/22 03:47:39;;;;;;;5.68;2.00;;;;;;;17.38;75.99;100055.97;6041266;23;100430;-77
2022/08/22 03:50:36;;;;;;;5.47;1.63;;;;;;;17.50;75.73;100065.78;6064625;23;101452;-76
2022/08/22 03:53:10;;;;;;;3.33;1.60;;;;;;;17.44;76.11;100060.88;6039541;23;97054;-75
2022/08/22 03:56:08;;;;;;;5.05;1.65;;;;;;;17.46;76.03;100069.59;6015541;23;97078;-76
2022/08/22 03:58:41;;;;;;;5.43;1.70;;;;;;;17.46;75.79;100066.09;6002939;23;101329;-76
2022/08/22 04:01:25;;;;;;;4.45;1.60;;;;;;;17.43;75.73;100069.78;6042130;23;97898;-76
2022/08/22 04:04:19;;;;;;;5.07;1.85;;;;;;;17.41;76.07;100067.22;6090229;23;97286;-76
2022/08/22 04:06:58;;;;;;;2.13;1.30;;;;;;;17.40;75.86;100070.00;6040350;23;97074;-76
2022/08/22 04:09:55;;;;;;;3.47;1.40;;;;;;;17.45;75.74;100065.22;6039165;23;98048;-76
2022/08/22 04:12:26;;;;;;;4.45;1.80;;;;;;;17.41;76.29;100064.56;6064592;23;98217;-76
2022/08/22 04:15:23;;;;;;;5.72;1.77;;;;;;;17.39;76.24;100063.84;6064272;23;97396;-76
2022/08/22 04:18:07;;;;;;;3.60;1.63;;;;;;;17.25;76.48;100052.44;6064803;23;97338;-76
2022/08/22 04:21:10;;;;;;;6.32;1.73;;;;;;;17.35;76.60;100077.41;6040332;23;101140;-77
2022/08/22 04:23:57;;;;;;;5.07;1.48;;;;;;;17.32;76.19;100073.16;6039672;23;101207;-78
2022/08/22 04:26:25;;;;;;;4.47;1.52;;;;;;;17.36;75.99;100077.28;6090793;23;96653;-76
2022/08/22 04:28:57;;;;;;;3.97;1.40;;;;;;;17.33;76.25;100076.66;6064138;23;96790;-76
2022/08/22 04:31:26;;;;;;;5.95;1.83;;;;;;;17.38;75.63;100061.28;6040803;23;100867;-76
2022/08/22 04:34:03;;;;;;;5.70;1.67;;;;;;;17.20;76.31;100063.34;6015542;23;101405;-76
2022/08/22 04:36:38;;;;;;;3.25;1.60;;;;;;;17.39;76.04;100073.59;6040615;23;97084;-76
2022/08/22 04:39:12;;;;;;;2.92;2.03;;;;;;;17.40;75.92;100064.69;6015454;23;97037;-79
2022/08/22 04:41:56;;;;;;;4.53;2.45;;;;;;;17.39;75.69;100060.31;6039398;23;100711;-76
2022/08/22 04:44:26;;;;;;;4.97;1.90;;;;;;;17.29;75.97;100069.84;6039867;23;101160;-75
2022/08/22 04:46:52;;;;;;;8.90;1.87;;;;;;;17.13;76.13;100044.34;6016839;23;97195;-76
2022/08/22 04:49:31;;;;;;;8.18;3.05;;;;;;;17.34;76.03;100070.41;6064999;23;97085;-76
2022/08/22 04:52:00;;;;;;;2.78;1.52;;;;;;;17.29;76.09;100056.59;6016075;23;101110;-77
2022/08/22 04:54:37;;;;;;;3.85;1.58;;;;;;;17.32;75.96;100081.09;6063811;23;98463;-77
2022/08/22 04:57:21;;;;;;;4.15;2.13;;;;;;;17.23;76.13;100070.25;6039973;23;96992;-77
2022/08/22 04:59:48;;;;;;;4.10;1.90;;;;;;;17.16;76.38;100065.38;6039442;23;96919;-76
2022/08/22 05:02:21;;;;;;;3.35;1.63;;;;;;;17.22;76.55;100069.41;6014677;23;100791;-76
2022/08/22 05:04:55;;;;;;;3.60;1.95;;;;;;;17.28;76.35;100073.44;6038859;23;97852;-76
2022/08/22 05:07:28;;;;;;;5.28;1.65;;;;;;;17.29;76.37;100068.06;6040155;23;96621;-76
2022/08/22 05:10:03;;;;;;;3.42;1.45;;;;;;;17.22;76.71;100069.41;6039540;23;97089;-76
2022/08/22 05:12:34;;;;;;;3.35;1.52;;;;;;;17.28;76.46;100065.47;6016356;23;101145;-76
2022/08/22 05:15:16;;;;;;;3.05;1.50;;;;;;;17.23;76.36;100070.25;6014771;23;100870;-76
2022/08/22 05:17:42;;;;;;;3.97;1.48;;;;;;;17.30;76.79;100074.19;6040858;23;96686;-76
2022/08/22 05:20:11;;;;;;;5.03;2.28;;;;;;;17.22;76.92;100073.84;6040910;23;96870;-76
2022/08/22 05:22:41;;;;;;;3.63;1.90;;;;;;;17.26;76.84;100064.75;6040004;23;97702;-76
2022/08/22 05:25:18;;;;;;;3.70;1.80;;;;;;;17.34;76.56;100086.34;6013879;23;100610;-76
2022/08/22 05:27:48;;;;;;;5.25;1.65;;;;;;;17.38;76.07;100071.91;6015520;23;96760;-80
2022/08/22 05:30:21;;;;;;;1.92;1.20;;;;;;;17.43;76.21;100077.75;6040110;23;97076;-78
2022/08/22 05:32:55;;;;;;;4.05;1.73;;;;;;;17.36;76.51;100084.41;6015528;23;100939;-78
2022/08/22 05:35:28;;;;;;;3.22;1.63;;;;;;;17.30;76.41;100083.00;6059956;23;97974;-76
2022/08/22 05:37:54;;;;;;;5.35;1.60;;;;;;;17.40;76.44;100085.91;6010711;23;97142;-76
2022/08/22 05:40:24;;;;;;;4.00;1.75;;;;;;;17.33;76.26;100082.81;6010014;23;97337;-77
2022/08/22 05:42:51;;;;;;;2.58;1.40;;;;;;;17.30;76.66;100092.78;6010514;23;99359;-77
2022/08/22 05:45:17;;;;;;;3.85;1.60;;;;;;;17.40;76.60;100091.22;5986337;23;101017;-78
2022/08/22 05:48:05;;;;;;;5.43;1.63;;;;;;;17.29;76.83;100094.56;5987068;23;96677;-76
2022/08/22 05:50:38;;;;;;;4.00;1.60;;;;;;;17.34;76.72;100099.59;5986671;23;96977;-76
2022/08/22 05:53:25;;;;;;;1.48;0.98;;;;;;;17.33;76.22;100087.25;5985370;23;101093;-76
2022/08/22 05:56:02;;;;;;;4.70;1.67;;;;;;;17.33;76.79;100098.72;6033888;23;101265;-77
2022/08/22 05:58:37;;;;;;;4.05;1.90;;;;;;;17.33;76.25;100097.88;6060318;23;96574;-77
2022/08/22 06:01:31;;;;;;;2.97;1.73;;;;;;;17.24;76.47;100103.78;6009901;23;97062;-76
2022/08/22 06:03:59;;;;;;;5.43;2.03;;;;;;;17.24;76.63;100106.44;5985175;23;101404;-76
2022/08/22 06:06:27;;;;;;;5.88;2.00;;;;;;;17.16;76.16;100091.00;6034458;23;99517;-77
2022/08/22 06:09:07;;;;;;;3.50;1.73;;;;;;;17.22;76.53;100103.03;6009541;23;97226;-77
2022/08/22 06:11:39;;;;;;;4.80;1.92;;;;;;;17.26;76.28;100112.50;6011254;23;96735;-78
2022/08/22 06:14:14;;;;;;;3.28;1.65;;;;;;;17.36;76.09;100116.25;6009369;23;97667;-76
2022/08/22 06:16:46;;;;;;;3.50;1.85;;;;;;;17.20;76.12;100103.13;6011545;23;97311;-76
2022/08/22 06:19:14;;;;;;;4.18;1.75;;;;;;;17.24;75.80;100101.13;6010539;23;96889;-76
2022/08/22 06:21:41;;;;;;;2.85;1.67;;;;;;;17.23;75.84;100116.19;5987757;23;96814;-76
2022/08/22 06:24:13;;;;;;;3.78;1.50;;;;;;;17.34;75.92;100115.50;6008967;23;97391;-77
2022/08/22 06:26:42;;;;;;;4.28;1.75;;;;;;;17.29;75.90;100107.00;5987510;23;101391;-76
2022/08/22 06:29:08;;;;;;;2.92;1.98;;;;;;;17.34;75.54;100116.34;6010503;23;96655;-76
2022/08/22 06:31:39;;;;;;;8.60;2.83;;;;;;;17.32;75.23;100099.69;6020581;23;96873;-77
2022/08/22 06:34:12;;;;;;;4.70;1.70;;;;;;;17.27;75.60;100114.19;6014613;23;101174;-77
2022/08/22 06:36:41;;;;;;;4.63;1.50;;;;;;;17.39;75.32;100114.25;6040236;23;100882;-76
2022/08/22 06:39:21;;;;;;;3.17;1.67;;;;;;;17.21;76.07;100099.53;6039954;23;96830;-76
2022/08/22 06:41:58;;;;;;;3.17;1.50;;;;;;;17.33;75.76;100119.09;6016831;23;97031;-74
2022/08/22 06:44:27;;;;;;;3.15;1.55;;;;;;;17.22;76.08;100103.91;6064414;23;97491;-74
2022/08/22 06:46:59;;;;;;;2.22;1.38;;;;;;;17.30;76.01;100106.03;6039492;23;101399;-74
2022/08/22 06:49:26;;;;;;;3.53;2.13;;;;;;;17.49;75.55;100121.59;6038067;23;96713;-75
2022/08/22 06:51:52;;;;;;;3.83;2.25;;;;;;;17.37;75.67;100102.88;6039639;23;96779;-74
2022/08/22 06:54:20;;;;;;;3.65;1.60;;;;;;;17.33;76.08;100129.72;6038849;23;97397;-74
2022/08/22 06:56:48;;;;;;;4.78;1.60;;;;;;;17.30;76.02;100117.50;6038424;23;100544;-74
2022/08/22 06:59:16;;;;;;;3.88;2.08;;;;;;;17.44;75.76;100121.91;6063379;23;97244;-74
2022/08/22 07:02:11;;;;;;;7.15;1.67;;;;;;;17.43;75.63;100123.72;6064497;23;96852;-75
2022/08/22 07:04:37;;;;;;;3.33;1.70;;;;;;;17.34;75.70;100124.31;5995154;23;97363;-74
2022/08/22 07:07:02;;;;;;;3.22;1.50;;;;;;;17.45;75.64;100128.06;6038968;23;97288;-74
2022/08/22 07:09:34;;;;;;;2.45;1.70;;;;;;;17.40;75.60;100120.41;6038966;23;97232;-75
2022/08/22 07:12:09;;;;;;;4.30;1.50;;;;;;;17.35;76.19;100115.41;6063763;23;96871;-74
2022/08/22 07:14:44;;;;;;;1.90;1.38;;;;;;;17.43;75.76;100118.41;6063631;23;97329;-74
2022/08/22 07:17:21;;;;;;;3.20;2.05;;;;;;;17.32;75.43;100099.69;6063869;23;97774;-74
2022/08/22 07:19:58;;;;;;;3.03;1.70;;;;;;;17.47;75.73;100115.53;6063330;23;97062;-74
2022/08/22 07:22:28;;;;;;;3.03;1.45;;;;;;;17.43;75.88;100115.75;6039852;23;96776;-74
2022/08/22 07:24:58;;;;;;;3.60;1.90;;;;;;;17.43;75.74;100113.09;6063007;23;97430;-75
2022/08/22 07:28:01;;;;;;;2.67;1.63;;;;;;;17.43;75.78;100110.44;6066241;23;97769;-74
2022/08/22 07:30:55;;;;;;;2.72;1.50;;;;;;;17.28;76.71;100102.63;6040300;23;97177;-74
2022/08/22 07:33:35;;;;;;;3.28;1.70;;;;;;;17.47;76.04;100119.03;6010579;23;97837;-75
2022/08/22 07:36:16;;;;;;;2.45;1.40;;;;;;;17.31;76.44;100119.22;6061138;23;97940;-74
2022/08/22 07:38:46;;;;;;;4.47;1.73;;;;;;;17.47;76.00;100128.81;6010900;23;101300;-75
2022/08/22 07:41:19;;;;;;;3.80;1.60;;;;;;;17.30;76.17;100106.03;6011412;23;97022;-80
2022/08/22 07:44:14;;;;;;;3.35;1.35;;;;;;;17.36;75.86;100095.00;6035551;23;96896;-78
2022/08/22 07:46:50;;;;;;;2.58;1.42;;;;;;;17.33;76.97;100114.63;6035078;23;101837;-78
2022/08/22 07:49:32;;;;;;;2.40;1.35;;;;;;;17.34;76.96;100115.50;6011079;23;98581;-78
2022/08/22 07:52:03;;;;;;;2.60;1.83;;;;;;;17.40;76.68;100102.69;6035470;23;96708;-77
2022/08/22 07:54:34;;;;;;;5.50;1.77;;;;;;;17.50;76.40;100116.19;6036730;23;97180;-79
2022/08/22 07:57:05;;;;;;;5.22;1.58;;;;;;;17.40;76.47;100110.66;6060958;23;97412;-78
2022/08/22 07:59:33;;;;;;;2.90;1.80;;;;;;;17.50;76.93;100118.00;6035629;23;100650;-79
2022/08/22 08:02:00;;;;;;;2.33;1.50;;;;;;;17.38;76.93;100107.22;5986144;23;96623;-79
2022/08/22 08:04:32;;;;;;;4.25;2.28;;;;;;;17.52;76.92;100126.72;6036344;23;97155;-81
2022/08/22 08:07:00;;;;;;;2.72;1.65;;;;;;;17.55;76.91;100124.69;6028170;23;97734;-78
2022/08/22 08:09:30;;;;;;;1.58;1.30;;;;;;;17.60;77.05;100125.25;6010073;23;101792;-82
2022/08/22 08:11:56;;;;;;;2.60;1.70;;;;;;;17.61;77.13;100121.63;5987381;23;96920;-79
2022/08/22 08:14:23;;;;;;;5.53;1.70;;;;;;;17.66;76.69;100118.69;5986386;23;97116;-82
2022/08/22 08:17:04;;;;;;;2.33;1.52;;;;;;;17.68;76.54;100124.72;5987683;23;100693;-81
2022/08/22 08:19:32;;;;;;;1.67;1.20;;;;;;;17.65;76.62;100120.47;6060487;23;97350;-79
2022/08/22 08:21:58;;;;;;;1.75;1.13;;;;;;;17.66;77.09;100118.69;6035092;23;97061;-73
2022/08/22 08:24:39;;;;;;;3.20;1.70;;;;;;;17.73;77.00;100129.75;6035409;23;97105;-75
2022/08/22 08:29:57;;;;;;;1.35;1.20;;;;;;;17.56;77.11;100123.75;6015058;23;100632;-77
2022/08/22 08:32:26;;;;;;;2.08;1.23;;;;;;;17.77;76.78;100126.78;6005935;23;97342;-75
2022/08/22 08:34:52;;;;;;;2.78;1.00;;;;;;;17.57;76.89;100090.09;6040756;23;97471;-78
2022/08/22 08:37:41;;;;;;;2.33;1.48;;;;;;;17.77;77.26;100133.88;6041206;23;98434;-78
2022/08/22 08:40:35;;;;;;;1.70;1.45;;;;;;;17.74;77.57;100124.31;6039858;23;100876;-78
2022/08/22 08:43:33;;;;;;;3.42;1.35;;;;;;;17.70;77.98;100127.28;6063878;23;97371;-75
2022/08/22 08:46:13;;;;;;;4.25;1.95;;;;;;;17.74;77.87;100118.16;6040388;23;97128;-77
2022/08/22 08:49:03;;;;;;;1.63;1.30;;;;;;;17.78;77.77;100119.72;6038901;23;102008;-78
2022/08/22 08:51:44;;;;;;;2.33;1.35;;;;;;;17.69;78.25;100113.19;6089322;23;97914;-77
2022/08/22 08:54:48;;;;;;;2.05;1.33;;;;;;;17.71;77.91;100118.38;6035872;23;97203;-75
2022/08/22 08:57:29;;;;;;;1.95;1.38;;;;;;;17.73;78.37;100111.16;6088958;23;97261;-78
2022/08/22 09:00:01;;;;;;;1.90;1.50;;;;;;;17.78;78.08;100120.56;6039063;23;100800;-79
2022/08/22 09:02:45;;;;;;;2.88;1.25;;;;;;;17.73;78.67;100117.31;6040475;23;97852;-77
2022/08/22 09:05:22;;;;;;;5.75;1.52;;;;;;;17.77;78.32;100117.94;6090019;23;96558;-77
2022/08/22 09:08:12;;;;;;;2.67;1.20;;;;;;;17.83;78.53;100122.88;6065425;23;97042;-77
2022/08/22 09:11:03;;;;;;;3.88;1.63;;;;;;;17.84;78.19;100114.81;6040172;23;101440;-77
2022/08/22 09:13:47;;;;;;;1.80;1.30;;;;;;;17.84;78.50;100108.66;6040661;23;101003;-77
2022/08/22 09:16:44;;;;;;;2.13;1.17;;;;;;;17.79;78.59;100100.16;6040731;23;97028;-77
2022/08/22 09:19:41;;;;;;;4.57;2.67;;;;;;;17.90;78.36;100112.72;6064356;23;97235;-76
2022/08/22 09:22:44;;;;;;;5.57;1.88;;;;;;;17.97;78.64;100112.19;6039820;23;100602;-77
2022/08/22 09:25:30;;;;;;;6.05;1.83;;;;;;;17.97;79.11;100108.69;6063239;23;98047;-79
2022/08/22 09:28:00;;;;;;;2.13;1.38;;;;;;;18.08;78.13;100104.31;6064759;23;96535;-75
2022/08/22 09:30:42;;;;;;;1.63;1.10;;;;;;;18.01;78.60;100113.69;6039539;23;97187;-75
2022/08/22 09:33:14;;;;;;;2.80;1.60;;;;;;;18.06;78.74;100106.25;6011388;23;98071;-75
2022/08/22 09:35:59;;;;;;;3.97;1.65;;;;;;;18.09;78.56;100107.84;6011295;23;101471;-75
2022/08/22 09:38:33;;;;;;;1.77;1.45;;;;;;;18.10;78.65;100105.09;6036267;23;97066;-75
2022/08/22 09:41:35;;;;;;;3.65;1.65;;;;;;;18.09;78.69;100107.84;6036566;23;96753;-75
2022/08/22 09:44:46;;;;;;;3.95;2.15;;;;;;;18.07;78.74;100107.09;6009111;23;100468;-75
2022/08/22 09:47:22;;;;;;;3.20;2.07;;;;;;;18.01;79.08;100116.34;6015149;23;100947;-75
2022/08/22 09:49:57;;;;;;;3.40;2.50;;;;;;;18.07;78.78;100110.59;6009278;23;97326;-76
2022/08/22 09:52:41;;;;;;;3.63;2.20;;;;;;;18.02;78.88;100106.56;6035132;23;96938;-73
2022/08/22 09:55:38;;;;;;;3.53;2.15;;;;;;;18.07;78.66;100109.75;6033801;23;101310;-76
2022/08/22 09:58:33;;;;;;;2.67;2.05;;;;;;;18.02;78.83;100102.09;6034379;23;97240;-75
2022/08/22 10:01:05;;;;;;;3.20;2.17;;;;;;;17.97;79.24;100096.25;6034529;23;96988;-75
2022/08/22 10:04:10;;;;;;;5.75;2.75;;;;;;;18.03;79.21;100109.09;6011913;23;97090;-75
2022/08/22 10:06:43;;;;;;;4.72;3.20;;;;;;;18.03;79.23;100106.44;5993686;23;101161;-76
2022/08/22 10:09:21;;;;;;;3.53;2.72;;;;;;;18.03;79.06;100106.44;6033606;23;97637;-75
2022/08/22 10:11:56;;;;;;;4.28;2.80;;;;;;;18.01;79.37;100108.38;6010946;23;97273;-75
2022/08/22 10:14:36;;;;;;;6.40;3.13;;;;;;;18.01;79.48;100099.56;6010726;23;97120;-76
2022/08/22 10:17:15;;;;;;;4.38;2.70;;;;;;;18.07;79.54;100099.13;6010622;23;97537;-75
2022/08/22 10:20:11;;;;;;;6.43;3.90;;;;;;;18.12;79.49;100109.44;6033922;23;101366;-75
2022/08/22 10:22:39;;;;;;;4.72;3.75;;;;;;;18.06;79.60;100108.91;6023371;23;96959;-76
2022/08/22 10:25:23;;;;;;;4.60;3.42;;;;;;;18.09;79.47;100108.72;6034520;23;97234;-75
2022/08/22 10:28:11;;;;;;;5.50;3.90;;;;;;;18.16;78.85;100101.16;6034324;23;101279;-76
2022/08/22 10:31:06;;;;;;;4.53;3.10;;;;;;;18.11;79.24;100111.25;6011291;23;101662;-78
2022/08/22 10:33:41;;;;;;;5.28;3.33;;;;;;;18.03;79.75;100106.44;5961855;23;97273;-77
2022/08/22 10:36:15;;;;;;;6.57;3.28;;;;;;;18.07;79.55;100110.59;6013035;23;96741;-78
2022/08/22 10:38:50;;;;;;;4.05;2.95;;;;;;;17.90;79.79;100080.84;6011207;23;101299;-77
2022/08/22 10:41:51;;;;;;;3.90;2.78;;;;;;;17.99;80.13;100106.78;6011190;23;100811;-77
2022/08/22 10:45:02;;;;;;;6.57;3.90;;;;;;;18.05;79.67;100109.00;6009161;23;96651;-76
2022/08/22 10:47:36;;;;;;;5.53;3.38;;;;;;;18.04;79.76;100097.53;6011048;23;96828;-77
2022/08/22 10:50:07;;;;;;;4.95;3.35;;;;;;;18.07;79.96;100107.09;6011207;23;98062;-78
2022/08/22 10:52:45;;;;;;;5.25;3.72;;;;;;;18.17;79.71;100112.63;6010865;23;101441;-75
2022/08/22 10:55:16;;;;;;;5.43;3.70;;;;;;;18.15;80.09;100110.09;6010396;23;96768;-77
2022/08/22 10:58:01;;;;;;;4.75;3.20;;;;;;;18.10;79.99;100107.75;6036721;23;96713;-75
2022/08/22 11:00:48;;;;;;;6.10;3.30;;;;;;;18.14;79.70;100107.53;6011859;23;97499;-75
2022/08/22 11:03:21;;;;;;;5.43;3.78;;;;;;;18.14;80.07;100096.91;6036700;23;100855;-76
2022/08/22 11:05:48;;;;;;;5.03;3.13;;;;;;;18.11;80.04;100103.28;6012461;23;97256;-78
2022/08/22 11:08:19;;;;;;;5.53;3.33;;;;;;;18.16;79.91;100111.78;5988614;23;96835;-78
2022/08/22 11:10:57;;;;;;;3.80;3.38;;;;;;;18.12;80.14;100104.13;6034454;23;100620;-78
2022/08/22 11:13:34;;;;;;;5.85;4.13;;;;;;;18.22;79.82;100103.38;6034302;23;97814;-74
2022/08/22 11:16:03;;;;;;;6.82;3.67;;;;;;;18.18;80.34;100107.22;6058295;23;97206;-77
2022/08/22 11:19:00;;;;;;;5.03;3.97;;;;;;;18.06;79.54;100082.34;6059726;23;97134;-75
2022/08/22 11:21:47;;;;;;;5.72;4.25;;;;;;;18.11;80.64;100095.31;6033488;23;101293;-77
2022/08/22 11:24:44;;;;;;;6.97;4.05;;;;;;;18.16;80.68;100113.59;6032846;23;101187;-74
2022/08/22 11:27:25;;;;;;;5.85;4.07;;;;;;;18.24;80.17;100114.75;6033559;23;96746;-76
2022/08/22 11:30:03;;;;;;;5.60;4.13;;;;;;;18.22;80.64;100110.50;5986804;23;96826;-73
2022/08/22 11:33:06;;;;;;;6.47;4.40;;;;;;;18.22;80.68;100107.84;6033510;23;98408;-76
2022/08/22 11:35:41;;;;;;;5.72;3.92;;;;;;;18.27;80.28;100113.72;6058353;23;97713;-77
2022/08/22 11:38:23;;;;;;;6.53;4.68;;;;;;;18.23;80.99;100113.03;6007642;23;97148;-77
2022/08/22 11:40:59;;;;;;;6.05;4.40;;;;;;;18.21;81.00;100095.50;6009052;23;97486;-75
2022/08/22 11:43:25;;;;;;;7.57;4.82;;;;;;;18.35;80.42;100106.03;5984597;23;101443;-78
2022/08/22 11:45:53;;;;;;;7.07;4.82;;;;;;;18.36;80.53;100107.75;6032448;23;97959;-78
2022/08/22 11:48:25;;;;;;;6.28;4.40;;;;;;;18.33;81.13;100105.31;6005205;23;96726;-77
2022/08/22 11:50:57;;;;;;;6.72;4.30;;;;;;;18.41;81.00;100120.69;5984826;23;96919;-78
2022/08/22 11:53:31;;;;;;;5.80;4.45;;;;;;;18.39;81.36;100106.69;5983637;23;101460;-77
2022/08/22 11:56:26;;;;;;;6.95;4.68;;;;;;;18.42;80.72;100115.28;6033808;23;98355;-77
2022/08/22 11:59:17;;;;;;;5.80;4.53;;;;;;;18.42;80.76;100112.63;6010148;23;97451;-77
2022/08/22 12:01:51;;;;;;;5.22;4.25;;;;;;;18.45;81.14;100119.53;6032878;23;97446;-77
2022/08/22 12:04:30;;;;;;;7.80;5.05;;;;;;;18.31;81.07;100104.56;5983897;23;101838;-78
2022/08/22 12:07:14;;;;;;;5.63;4.53;;;;;;;18.48;80.49;100122.81;6011655;23;98285;-77
2022/08/22 12:09:49;;;;;;;6.95;4.57;;;;;;;18.42;80.53;100103.81;6037249;23;96691;-77
2022/08/22 12:12:33;;;;;;;8.27;5.07;;;;;;;18.45;80.87;100125.69;6010893;23;97150;-79
2022/08/22 12:15:11;;;;;;;8.75;5.65;;;;;;;18.44;80.88;100118.69;6062567;23;97894;-75
2022/08/22 12:17:52;;;;;;;6.35;4.95;;;;;;;18.49;80.71;100121.00;6012273;23;100884;-77
2022/08/22 12:20:22;;;;;;;6.43;5.30;;;;;;;18.53;80.98;100115.38;6011796;23;97057;-78
2022/08/22 12:23:25;;;;;;;9.15;5.30;;;;;;;18.59;80.84;100114.13;5985451;23;97161;-78